createdAt,value
2022-09-06T00:01:57.767Z,34.50
2022-09-06T00:07:00.941Z,34.00
2022-09-06T00:12:05.650Z,34.30
2022-09-06T00:17:08.798Z,34.40
2022-09-06T00:22:12.077Z,34.10
2022-09-06T00:27:16.768Z,34.20
2022-09-06T00:32:19.902Z,34.70
2022-09-06T00:37:23.061Z,34.40
2022-09-06T00:42:28.596Z,34.30
2022-09-06T00:47:31.920Z,35.00
2022-09-06T00:52:35.780Z,34.60
2022-09-06T00:57:40.884Z,34.60
2022-09-06T01:02:44.453Z,35.30
2022-09-06T01:08:00.069Z,34.80
2022-09-06T01:13:12.225Z,35.30
2022-09-06T01:18:29.142Z,35.40
2022-09-06T01:24:05.562Z,35.80
2022-09-06T01:29:15.422Z,35.40
2022-09-06T01:34:25.600Z,35.70
2022-09-06T01:39:31.170Z,35.50
2022-09-06T01:44:36.958Z,35.40
2022-09-06T01:49:53.380Z,35.50
2022-09-06T01:55:09.121Z,35.90
2022-09-06T02:00:16.036Z,36.10
2022-09-06T02:05:25.225Z,35.90
2022-09-06T02:10:33.449Z,36.30
2022-09-06T02:15:41.455Z,36.00
2022-09-06T02:20:51.218Z,36.00
2022-09-06T02:25:58.589Z,36.70
2022-09-06T02:31:10.473Z,35.90
2022-09-06T02:36:14.578Z,36.60
2022-09-06T02:41:22.663Z,35.70
2022-09-06T02:46:27.227Z,36.50
2022-09-06T02:51:30.421Z,36.30
2022-09-06T02:56:36.548Z,35.80
2022-09-06T03:01:41.155Z,35.90
2022-09-06T03:06:44.390Z,36.50
2022-09-06T03:11:47.529Z,35.90
2022-09-06T03:16:52.127Z,36.40
2022-09-06T03:21:55.417Z,36.30
2022-09-06T03:26:58.602Z,36.20
2022-09-06T03:32:03.802Z,36.20
2022-09-06T03:37:07.097Z,36.20
2022-09-06T03:42:10.340Z,36.10
2022-09-06T03:47:19.290Z,36.10
2022-09-06T03:52:22.837Z,36.10
2022-09-06T03:57:26.036Z,35.90
2022-09-06T04:02:30.600Z,36.00
2022-09-06T04:07:33.901Z,36.80
2022-09-06T04:12:37.036Z,36.40
2022-09-06T04:17:45.486Z,36.10
2022-09-06T04:22:48.640Z,37.30
2022-09-06T04:27:51.807Z,36.30
2022-09-06T04:32:56.413Z,36.30
2022-09-06T04:38:01.915Z,36.90
2022-09-06T04:43:05.349Z,37.20
2022-09-06T04:48:09.880Z,36.70
2022-09-06T04:53:13.153Z,37.30
2022-09-06T04:58:16.390Z,37.00
2022-09-06T05:03:20.955Z,37.10
2022-09-06T05:08:24.222Z,37.70
2022-09-06T05:13:27.389Z,37.40
2022-09-06T05:18:31.925Z,37.30
2022-09-06T05:23:35.168Z,37.90
2022-09-06T05:28:38.402Z,37.60
2022-09-06T05:33:42.928Z,37.70
2022-09-06T05:38:46.102Z,38.20
2022-09-06T05:43:49.650Z,37.90
2022-09-06T05:48:59.833Z,38.30
2022-09-06T05:54:03.014Z,39.30
2022-09-06T05:59:06.169Z,38.80
2022-09-06T06:04:10.700Z,39.10
2022-09-06T06:09:14.418Z,40.10
2022-09-06T06:14:17.669Z,39.90
2022-09-06T06:19:22.207Z,40.20
2022-09-06T06:24:25.839Z,41.40
2022-09-06T06:29:28.988Z,41.20
2022-09-06T06:34:33.513Z,41.50
2022-09-06T06:39:37.025Z,42.80
2022-09-06T06:44:40.361Z,42.20
2022-09-06T06:49:44.940Z,42.50
2022-09-06T06:54:49.217Z,43.50
2022-09-06T06:59:52.348Z,42.80
2022-09-06T07:04:57.001Z,42.80
2022-09-06T07:15:23.364Z,43.00
2022-09-06T07:20:29.213Z,43.10
2022-09-06T07:25:33.710Z,43.80
2022-09-06T07:30:38.083Z,43.00
2022-09-06T07:35:43.244Z,43.10
2022-09-06T07:40:54.497Z,43.30
2022-09-06T07:46:07.054Z,44.00
2022-09-06T07:51:13.614Z,43.80
2022-09-06T07:56:18.921Z,43.30
2022-09-06T08:01:31.326Z,42.70
2022-09-06T08:12:06.589Z,43.40
2022-09-06T08:17:10.105Z,43.30
2022-09-06T08:22:14.616Z,43.10
2022-09-06T08:27:17.760Z,43.80
2022-09-06T08:32:20.969Z,42.30
2022-09-06T08:37:25.785Z,42.20
2022-09-06T08:42:29.036Z,42.40
2022-09-06T08:47:41.553Z,42.30
2022-09-06T08:53:17.672Z,41.90
2022-09-06T08:58:36.674Z,41.70
2022-09-06T09:03:41.234Z,41.00
2022-09-06T09:08:54.224Z,40.50
2022-09-06T09:14:03.249Z,40.60
2022-09-06T09:19:10.454Z,40.90
2022-09-06T09:24:16.600Z,39.70
2022-09-06T09:29:26.746Z,39.50
2022-09-06T09:34:35.937Z,39.60
2022-09-06T09:39:42.089Z,38.90
2022-09-06T09:44:46.065Z,38.70
2022-09-06T09:49:50.260Z,38.60
2022-09-06T09:54:58.548Z,38.40
2022-09-06T10:00:02.124Z,37.80
2022-09-06T10:05:09.361Z,38.20
2022-09-06T10:10:21.412Z,37.70
2022-09-06T10:15:34.649Z,37.00
2022-09-06T10:20:43.321Z,36.40
2022-09-06T10:25:49.731Z,36.00
2022-09-06T10:31:03.615Z,35.90
2022-09-06T10:36:07.284Z,36.00
2022-09-06T10:41:35.576Z,35.60
2022-09-06T10:46:42.803Z,34.90
2022-09-06T10:51:50.728Z,35.40
2022-09-06T10:56:59.582Z,34.50
2022-09-06T11:02:14.047Z,33.90
2022-09-06T11:07:25.848Z,33.80
2022-09-06T11:12:35.859Z,33.10
2022-09-06T11:17:45.018Z,32.90
2022-09-06T11:23:24.978Z,32.20
2022-09-06T11:28:34.862Z,33.10
2022-09-06T11:33:39.937Z,32.70
2022-09-06T11:38:44.189Z,33.30
2022-09-06T11:43:50.568Z,32.80
2022-09-06T11:49:05.029Z,31.70
2022-09-06T11:54:26.954Z,31.90
2022-09-06T11:59:38.037Z,31.20
2022-09-06T12:05:12.013Z,30.70
2022-09-06T12:10:51.006Z,31.30
2022-09-06T12:15:57.068Z,31.30
2022-09-06T12:21:04.252Z,31.30
2022-09-06T12:26:08.352Z,31.10
2022-09-06T12:31:32.099Z,31.40
2022-09-06T12:36:35.924Z,31.30
2022-09-06T12:41:43.559Z,31.20
2022-09-06T12:46:51.617Z,31.00
2022-09-06T12:52:07.781Z,30.30
2022-09-06T12:57:15.948Z,30.80
2022-09-06T13:02:25.025Z,30.20
2022-09-06T13:07:31.698Z,30.30
2022-09-06T13:12:36.581Z,30.90
2022-09-06T13:17:41.445Z,30.70
2022-09-06T13:22:46.669Z,30.30
2022-09-06T13:27:51.289Z,30.10
2022-09-06T13:32:55.790Z,31.10
2022-09-06T13:38:20.713Z,30.40
2022-09-06T13:43:25.292Z,30.30
2022-09-06T13:48:29.745Z,30.10
2022-09-06T13:53:32.970Z,30.00
2022-09-06T13:58:36.136Z,29.70
2022-09-06T14:03:43.009Z,29.90
2022-09-06T14:14:09.765Z,29.50
2022-09-06T14:19:14.620Z,29.60
2022-09-06T14:24:17.851Z,29.30
2022-09-06T14:29:21.002Z,29.70
2022-09-06T14:34:26.053Z,29.70
2022-09-06T14:39:29.285Z,29.30
2022-09-06T14:44:32.695Z,29.60
2022-09-06T14:49:37.284Z,28.90
2022-09-06T14:54:40.500Z,28.80
2022-09-06T14:59:43.688Z,29.00
2022-09-06T15:04:49.131Z,29.10
2022-09-06T15:09:52.331Z,28.90
2022-09-06T15:14:55.829Z,29.00
2022-09-06T15:20:01.119Z,28.70
2022-09-06T15:25:04.596Z,28.40
2022-09-06T15:30:08.682Z,28.50
2022-09-06T15:35:13.265Z,28.40
2022-09-06T15:40:16.624Z,28.30
2022-09-06T15:45:20.043Z,28.50
2022-09-06T15:50:47.570Z,28.60
2022-09-06T15:55:57.378Z,28.40
2022-09-06T16:01:05.982Z,28.50
2022-09-06T16:06:28.709Z,26.80
2022-09-06T16:11:35.870Z,26.70
2022-09-06T16:16:40.567Z,27.20
2022-09-06T16:21:45.503Z,27.20
2022-09-06T16:26:48.749Z,26.90
2022-09-06T16:31:56.676Z,27.40
2022-09-06T16:37:07.747Z,27.40
2022-09-06T16:42:11.179Z,26.90
2022-09-06T16:47:16.680Z,27.30
2022-09-06T16:52:21.583Z,27.30
2022-09-06T16:57:25.246Z,27.40
2022-09-06T17:02:28.532Z,27.90
2022-09-06T17:07:33.244Z,28.00
2022-09-06T17:12:36.453Z,28.30
2022-09-06T17:17:39.712Z,28.20
2022-09-06T17:22:44.356Z,28.40
2022-09-06T17:27:48.224Z,28.20
2022-09-06T17:32:51.502Z,28.40
2022-09-06T17:37:56.193Z,28.70
2022-09-06T17:42:59.372Z,28.60
2022-09-06T17:48:02.537Z,28.70
2022-09-06T17:53:07.157Z,28.90
2022-09-06T17:58:10.446Z,29.00
2022-09-06T18:03:13.727Z,29.00
2022-09-06T18:08:18.284Z,29.40
2022-09-06T18:13:21.528Z,29.80
2022-09-06T18:18:25.985Z,29.70
2022-09-06T18:23:32.130Z,29.70
2022-09-06T18:28:38.316Z,30.30
2022-09-06T18:33:42.928Z,30.40
2022-09-06T18:38:47.680Z,30.20
2022-09-06T18:43:51.991Z,30.10
2022-09-06T18:48:55.995Z,30.00
2022-09-06T18:54:01.230Z,30.10
2022-09-06T18:59:05.658Z,31.00
2022-09-06T19:04:09.112Z,31.00
2022-09-06T19:09:15.896Z,30.90
2022-09-06T19:14:19.150Z,31.80
2022-09-06T19:19:23.271Z,31.40
2022-09-06T19:24:28.063Z,31.50
2022-09-06T19:29:32.016Z,32.30
2022-09-06T19:34:35.256Z,31.80
2022-09-06T19:39:40.206Z,32.00
2022-09-06T19:44:44.079Z,32.40
2022-09-06T19:49:47.345Z,32.20
2022-09-06T19:54:53.293Z,32.30
2022-09-06T19:59:56.708Z,32.70
2022-09-06T20:05:00.252Z,32.70
2022-09-06T20:10:06.532Z,32.60
2022-09-06T20:15:11.131Z,33.20
2022-09-06T20:20:15.107Z,33.10
2022-09-06T20:25:19.801Z,32.90
2022-09-06T20:30:23.024Z,33.60
2022-09-06T20:35:26.382Z,32.90
2022-09-06T20:40:31.105Z,33.30
2022-09-06T20:45:34.816Z,34.40
2022-09-06T20:50:38.233Z,33.90
2022-09-06T20:55:44.267Z,34.30
2022-09-06T21:00:47.564Z,34.50
2022-09-06T21:05:50.908Z,34.20
2022-09-06T21:11:01.256Z,34.30
2022-09-06T21:16:05.577Z,35.40
2022-09-06T21:21:09.624Z,34.80
2022-09-06T21:26:15.849Z,35.30
2022-09-06T21:31:22.029Z,35.60
2022-09-06T21:36:29.428Z,35.60
2022-09-06T21:41:35.495Z,35.60
2022-09-06T21:46:40.109Z,36.10
2022-09-06T21:51:43.746Z,35.90
2022-09-06T21:56:49.128Z,35.60
2022-09-06T22:01:54.478Z,36.30
2022-09-06T22:06:57.839Z,36.10
2022-09-06T22:12:02.875Z,36.20
2022-09-06T22:17:06.421Z,36.70
2022-09-06T22:22:10.139Z,36.30
2022-09-06T22:27:14.731Z,36.20
2022-09-06T22:32:17.940Z,36.70
2022-09-06T22:37:21.313Z,36.60
2022-09-06T22:42:26.008Z,36.90
2022-09-06T22:47:29.339Z,37.50
2022-09-06T22:52:32.621Z,37.10
2022-09-06T22:57:37.207Z,37.10
2022-09-06T23:02:40.520Z,37.70
2022-09-06T23:07:43.724Z,37.40
2022-09-06T23:12:48.486Z,37.30
2022-09-06T23:17:51.980Z,38.00
2022-09-06T23:22:55.193Z,37.40
2022-09-06T23:28:01.035Z,37.40
2022-09-06T23:33:04.304Z,38.20
2022-09-06T23:38:07.603Z,38.20
2022-09-06T23:43:12.233Z,38.20
2022-09-06T23:48:15.477Z,38.20
2022-09-06T23:53:19.497Z,38.20
2022-09-06T23:58:24.190Z,38.20
